Terminal Aerodrome Forecast
Issued by NWS Brownsville, TX

Home | Current Version | Previous Version | Text Only | Print | Product List | Glossary On
Versions: 1 2 3 4 5 6 7 8 9 10 11 12 13 14 15 16 17 18 19 20 21 22 23 24 25 26
000
FTUS44 KBRO 222300
TAFBRO
TAF
KBRO 222320Z 2300/2324 06011KT P6SM FEW026 BKN100
      TEMPO 2311/2314 2SM BR
     FM231600 09008KT P6SM SCT025 BKN040 PROB30 2318/2324 P6SM -SHRA
      BKN025=

USA.gov is the U.S. government's official web portal to all federal, state and local government web resources and services.